Fishguard, United Kingdom
Current Conditions -  °F | °C
As of 11:50 AM on Friday 28 Nov 2014 (Local Time) from EGOP Reporting Station
Clear Clear  
Wind Chill: 55°   Ceiling: Unl
Heat Index: 55°   Visibility: 6mi
Dew Point: 46°   Wind: 15mph
Humidity: 72%   Direction: 70°ENE
Pressure: 29.53"   Gusts: NA
Location:  51.99°N, 4.98°W
Report Text: EGOP 281150Z AUTO 07013KT 9999 // NCD 13/08 Q1000
Loading
Personal Weather Stations






























Interactive Weather Map New forecast layout! Learn more

10-Day Weather Forecast

Advertisements
Track Severe Weather on mobile